Airfield :
LOGIN :

Register | Disclaimer

   EN    FR    IT 

 










Legend :    VFR   Marginal VFR   IFR   Intensive IFR   Very Intensive IFR
Visi :
Ceiling :
>= 8 km
>= 3000ft
5 to 8 km
1000 to 3000 ft
1500m to 5 km
500 to 1000 ft
800 to 1500m
200 to 500 ft
< 800m
< 200 ft
Symbols :   Thunderstorms  Fog  Heavy snow  Heavy precipitations  Wind > 20 kt
SIGMETs :     Misc.  Thunderstorms  Icing  Turbulence  Mountain Waves  Volcanic Ashes







- Airport Elevation : 16 ft
- IATA code : SDR


LEXJ - Santander Cantabria

CURRENT METAR :
  • 210800Z 01005KT 9999 FEW032 SCT040 09/04 Q1024

EXPIRED METARs :
  • 210730Z 01007KT 350V050 9999 FEW032 SCT043 10/05 Q1024
  • 210700Z 03007KT 360V070 9999 SCT032 BKN040 10/05 Q1024
  • 210630Z 02007KT 350V060 9999 SCT024 BKN036 10/05 Q1023
  • 210600Z 03007KT 350V070 9999 SCT024 BKN042 10/06 Q1023 RERA
  • 210530Z 07003KT 020V140 7000 RA SCT024 SCT032 BKN043 09/07 Q1023

TAF TAF LEXJ
Valid from the 21 at 03:00 until the 22 at 03:00 UTC


210200Z 2103/2203 35008KT 9999 SCT015 BKN040 TX12/2114Z TN05/2107Z
TEMPO 2103/2112 RA
PROB40
TEMPO 2103/2112 3000 SHRA SCT030TCU
No reported NOTAMs for that airfield.



MET'MAP, your aeronautical weather chart ! - Copyright ORBIFLY December 2007 - Disclaimer

ORBIFLY MET'MAP TEAM :

Programming & Development : Alexandra Zaïnal
Concept & Development : Baudouin d'Aumeries
Co-Development & Prog : Marc-Olivier Méhu
Technical & hardware support : Manuel Goepfert

Contact : metmap@orbifly.com




SOURCES & CREDITS :

   NOAA